<?xml version='1.0' encoding='UTF-8'?><gpx version="1.1" creator="JPX - https://github.com/jenetics/jpx" xmlns="http://www.topografix.com/GPX/1/1"><trk><trkseg><trkpt lat="43.9809417" lon="10.1767972"><ele>4.0</ele><time>2026-03-22T08:09:01.866Z</time></trkpt><trkpt lat="43.9809339" lon="10.1767087"><ele>4.0</ele><time>2026-03-22T08:09:09.8Z</time></trkpt><trkpt lat="43.9808135" lon="10.1762468"><ele>4.0</ele><time>2026-03-22T08:09:55.9Z</time></trkpt><trkpt lat="43.980876" lon="10.1762109"><ele>2.0</ele><time>2026-03-22T08:10:12.899Z</time></trkpt><trkpt lat="43.9811835" lon="10.1762035"><ele>0.0</ele><time>2026-03-22T08:10:36.901Z</time></trkpt><trkpt lat="43.981378" lon="10.1762326"><ele>4.0</ele><time>2026-03-22T08:10:56.895Z</time></trkpt><trkpt lat="43.9820121" lon="10.1763913"><ele>4.0</ele><time>2026-03-22T08:11:57.868Z</time></trkpt><trkpt lat="43.9819848" lon="10.1762408"><ele>4.0</ele><time>2026-03-22T08:12:01.808Z</time></trkpt><trkpt lat="43.9819345" lon="10.176043"><ele>4.0</ele><time>2026-03-22T08:12:02.815Z</time></trkpt><trkpt lat="43.981881" lon="10.1758044"><ele>4.0</ele><time>2026-03-22T08:12:03.831Z</time></trkpt><trkpt lat="43.981808" lon="10.175479"><ele>1.5</ele><time>2026-03-22T08:12:04.835Z</time></trkpt><trkpt lat="43.9816718" lon="10.1749416"><ele>-1.0</ele><time>2026-03-22T08:12:05.833Z</time></trkpt><trkpt lat="43.9815138" lon="10.174345"><ele>-1.0</ele><time>2026-03-22T08:12:06.832Z</time></trkpt><trkpt lat="43.9813384" lon="10.1737074"><ele>0.0</ele><time>2026-03-22T08:12:07.827Z</time></trkpt><trkpt lat="43.9811481" lon="10.1730787"><ele>0.0</ele><time>2026-03-22T08:12:08.825Z</time></trkpt><trkpt lat="43.9809655" lon="10.1724831"><ele>0.0</ele><time>2026-03-22T08:12:09.817Z</time></trkpt><trkpt lat="43.9807967" lon="10.1719287"><ele>0.0</ele><time>2026-03-22T08:12:10.827Z</time></trkpt><trkpt lat="43.980637" lon="10.1714592"><ele>0.0</ele><time>2026-03-22T08:12:11.83Z</time></trkpt><trkpt lat="43.9805146" lon="10.1710662"><ele>0.0</ele><time>2026-03-22T08:12:12.829Z</time></trkpt><trkpt lat="43.9804134" lon="10.1707067"><ele>4.0</ele><time>2026-03-22T08:12:13.831Z</time></trkpt><trkpt lat="43.9801543" lon="10.1697803"><ele>4.5</ele><time>2026-03-22T08:12:15.816Z</time></trkpt><trkpt lat="43.9799984" lon="10.1692136"><ele>5.0</ele><time>2026-03-22T08:12:16.816Z</time></trkpt><trkpt lat="43.979846" lon="10.1686725"><ele>3.5</ele><time>2026-03-22T08:12:17.817Z</time></trkpt><trkpt lat="43.9797282" lon="10.1682266"><ele>2.0</ele><time>2026-03-22T08:12:18.825Z</time></trkpt><trkpt lat="43.9796839" lon="10.1679691"><ele>2.0</ele><time>2026-03-22T08:12:19.825Z</time></trkpt><trkpt lat="43.9796733" lon="10.1677955"><ele>2.0</ele><time>2026-03-22T08:12:20.822Z</time></trkpt><trkpt lat="43.9796808" lon="10.1676924"><ele>2.0</ele><time>2026-03-22T08:12:21.825Z</time></trkpt><trkpt lat="43.97961" lon="10.1673618"><ele>2.0</ele><time>2026-03-22T08:12:23.83Z</time></trkpt><trkpt lat="43.9796068" lon="10.1671581"><ele>2.333333333333333</ele><time>2026-03-22T08:12:24.823Z</time></trkpt><trkpt lat="43.9796491" lon="10.167018"><ele>2.6666666666666665</ele><time>2026-03-22T08:12:25.829Z</time></trkpt><trkpt lat="43.9799566" lon="10.1669904"><ele>3.0</ele><time>2026-03-22T08:12:27.823Z</time></trkpt><trkpt lat="43.9801972" lon="10.1671972"><ele>4.0</ele><time>2026-03-22T08:12:28.828Z</time></trkpt><trkpt lat="43.9803889" lon="10.1674553"><ele>5.0</ele><time>2026-03-22T08:12:29.83Z</time></trkpt><trkpt lat="43.9805835" lon="10.1678158"><ele>5.0</ele><time>2026-03-22T08:12:30.844Z</time></trkpt><trkpt lat="43.9807248" lon="10.1680779"><ele>5.0</ele><time>2026-03-22T08:12:31.835Z</time></trkpt><trkpt lat="43.9809339" lon="10.168509"><ele>4.666666666666667</ele><time>2026-03-22T08:12:35.856Z</time></trkpt><trkpt lat="43.9809855" lon="10.1686811"><ele>4.333333333333333</ele><time>2026-03-22T08:12:37.83Z</time></trkpt><trkpt lat="43.9810035" lon="10.1688061"><ele>4.0</ele><time>2026-03-22T08:12:38.839Z</time></trkpt><trkpt lat="43.9827061" lon="10.176711"><ele>4.166666666666666</ele><time>2026-03-22T08:12:47.846Z</time></trkpt><trkpt lat="43.9826966" lon="10.1764845"><ele>4.333333333333333</ele><time>2026-03-22T08:12:56.886Z</time></trkpt><trkpt lat="43.9827683" lon="10.1764649"><ele>4.5</ele><time>2026-03-22T08:13:02.89Z</time></trkpt><trkpt lat="43.9828342" lon="10.176437"><ele>4.666666666666667</ele><time>2026-03-22T08:13:07.885Z</time></trkpt><trkpt lat="43.9828983" lon="10.1764326"><ele>4.833333333333334</ele><time>2026-03-22T08:13:43.891Z</time></trkpt><trkpt lat="43.9829594" lon="10.1763896"><ele>5.0</ele><time>2026-03-22T08:13:53.891Z</time></trkpt><trkpt lat="43.9830249" lon="10.1763612"><ele>5.0</ele><time>2026-03-22T08:13:59.891Z</time></trkpt><trkpt lat="43.9830867" lon="10.1763184"><ele>5.0</ele><time>2026-03-22T08:14:06.884Z</time></trkpt><trkpt lat="43.9831683" lon="10.1763062"><ele>5.0</ele><time>2026-03-22T08:14:11.821Z</time></trkpt><trkpt lat="43.9832711" lon="10.1762981"><ele>5.0</ele><time>2026-03-22T08:14:16.787Z</time></trkpt><trkpt lat="43.9832856" lon="10.1762124"><ele>5.0</ele><time>2026-03-22T08:14:23.887Z</time></trkpt><trkpt lat="43.9833527" lon="10.1761598"><ele>5.0</ele><time>2026-03-22T08:14:29.891Z</time></trkpt><trkpt lat="43.9834072" lon="10.1760932"><ele>2.0</ele><time>2026-03-22T08:14:35.891Z</time></trkpt><trkpt lat="43.9838278" lon="10.1758416"><ele>2.0</ele><time>2026-03-22T08:15:17.9Z</time></trkpt><trkpt lat="43.9838945" lon="10.1758007"><ele>2.0</ele><time>2026-03-22T08:15:23.9Z</time></trkpt><trkpt lat="43.9849662" lon="10.1751199"><ele>1.6666666666666665</ele><time>2026-03-22T08:17:04.906Z</time></trkpt><trkpt lat="43.9852425" lon="10.1749523"><ele>1.3333333333333333</ele><time>2026-03-22T08:17:29.905Z</time></trkpt><trkpt lat="43.9853013" lon="10.1749162"><ele>1.0</ele><time>2026-03-22T08:17:34.905Z</time></trkpt><trkpt lat="43.9854701" lon="10.1747317"><ele>1.0</ele><time>2026-03-22T08:17:56.885Z</time></trkpt><trkpt lat="43.9854269" lon="10.1748607"><ele>1.0</ele><time>2026-03-22T08:18:09.827Z</time></trkpt><trkpt lat="43.9853263" lon="10.1750602"><ele>1.0</ele><time>2026-03-22T08:18:10.83Z</time></trkpt><trkpt lat="43.9852176" lon="10.17527"><ele>0.5</ele><time>2026-03-22T08:18:11.804Z</time></trkpt><trkpt lat="43.9849897" lon="10.1756537"><ele>0.0</ele><time>2026-03-22T08:18:13.797Z</time></trkpt><trkpt lat="43.9845996" lon="10.1763147"><ele>0.0</ele><time>2026-03-22T08:18:16.794Z</time></trkpt><trkpt lat="43.9844749" lon="10.1765084"><ele>0.0</ele><time>2026-03-22T08:18:17.795Z</time></trkpt><trkpt lat="43.9843466" lon="10.1766829"><ele>0.0</ele><time>2026-03-22T08:18:18.811Z</time></trkpt><trkpt lat="43.9842015" lon="10.1767894"><ele>0.5</ele><time>2026-03-22T08:18:19.816Z</time></trkpt><trkpt lat="43.984017" lon="10.1769514"><ele>1.0</ele><time>2026-03-22T08:18:20.809Z</time></trkpt><trkpt lat="43.9838062" lon="10.1771066"><ele>1.0</ele><time>2026-03-22T08:18:21.812Z</time></trkpt><trkpt lat="43.9836499" lon="10.1771913"><ele>1.0</ele><time>2026-03-22T08:18:22.811Z</time></trkpt><trkpt lat="43.9835818" lon="10.1772621"><ele>1.0</ele><time>2026-03-22T08:18:23.813Z</time></trkpt><trkpt lat="43.9835362" lon="10.1773294"><ele>1.0</ele><time>2026-03-22T08:18:24.813Z</time></trkpt><trkpt lat="43.9834599" lon="10.1773632"><ele>1.0</ele><time>2026-03-22T08:18:25.811Z</time></trkpt><trkpt lat="43.9833616" lon="10.177384"><ele>1.6666666666666665</ele><time>2026-03-22T08:18:26.812Z</time></trkpt><trkpt lat="43.9832432" lon="10.1774143"><ele>2.3333333333333335</ele><time>2026-03-22T08:18:27.815Z</time></trkpt><trkpt lat="43.9831929" lon="10.1775021"><ele>3.0</ele><time>2026-03-22T08:18:28.807Z</time></trkpt><trkpt lat="43.982701" lon="10.1777158"><ele>3.0</ele><time>2026-03-22T08:18:34.861Z</time></trkpt><trkpt lat="43.9826764" lon="10.1787598"><ele>6.0</ele><time>2026-03-22T08:18:40.828Z</time></trkpt><trkpt lat="43.9858002" lon="10.1744897"><ele>6.0</ele><time>2026-03-22T08:18:46.847Z</time></trkpt><trkpt lat="43.9857084" lon="10.1744501"><ele>6.0</ele><time>2026-03-22T08:18:48.839Z</time></trkpt><trkpt lat="43.9856815" lon="10.1746446"><ele>6.0</ele><time>2026-03-22T08:18:50.834Z</time></trkpt><trkpt lat="43.9862092" lon="10.1742096"><ele>5.5</ele><time>2026-03-22T08:18:57.819Z</time></trkpt><trkpt lat="43.9861808" lon="10.1743981"><ele>5.0</ele><time>2026-03-22T08:18:58.841Z</time></trkpt><trkpt lat="43.9860944" lon="10.1743701"><ele>4.5</ele><time>2026-03-22T08:18:59.851Z</time></trkpt><trkpt lat="43.9861573" lon="10.1743403"><ele>4.0</ele><time>2026-03-22T08:19:11.91Z</time></trkpt><trkpt lat="43.9863077" lon="10.1742665"><ele>4.0</ele><time>2026-03-22T08:19:26.909Z</time></trkpt><trkpt lat="43.9864159" lon="10.1742119"><ele>4.0</ele><time>2026-03-22T08:19:37.905Z</time></trkpt><trkpt lat="43.9866446" lon="10.1740753"><ele>4.0</ele><time>2026-03-22T08:19:58.911Z</time></trkpt><trkpt lat="43.9867115" lon="10.1740313"><ele>4.0</ele><time>2026-03-22T08:20:04.905Z</time></trkpt><trkpt lat="43.986772" lon="10.1739951"><ele>3.833333333333333</ele><time>2026-03-22T08:20:09.905Z</time></trkpt><trkpt lat="43.9868271" lon="10.1739475"><ele>3.6666666666666665</ele><time>2026-03-22T08:20:14.912Z</time></trkpt><trkpt lat="43.9868946" lon="10.1739013"><ele>3.5</ele><time>2026-03-22T08:20:20.906Z</time></trkpt><trkpt lat="43.9869513" lon="10.1738576"><ele>3.333333333333333</ele><time>2026-03-22T08:20:26.905Z</time></trkpt><trkpt lat="43.9870579" lon="10.1737714"><ele>3.1666666666666665</ele><time>2026-03-22T08:20:37.905Z</time></trkpt><trkpt lat="43.987112" lon="10.173723"><ele>3.0</ele><time>2026-03-22T08:20:42.91Z</time></trkpt><trkpt lat="43.9871701" lon="10.1736602"><ele>3.0</ele><time>2026-03-22T08:20:48.905Z</time></trkpt><trkpt lat="43.9874399" lon="10.1733909"><ele>3.0</ele><time>2026-03-22T08:21:44.893Z</time></trkpt><trkpt lat="43.9874555" lon="10.1730027"><ele>3.5</ele><time>2026-03-22T08:22:45.903Z</time></trkpt><trkpt lat="43.9873322" lon="10.1724671"><ele>4.0</ele><time>2026-03-22T08:23:16.903Z</time></trkpt><trkpt lat="43.9872894" lon="10.1723534"><ele>4.0</ele><time>2026-03-22T08:23:25.904Z</time></trkpt><trkpt lat="43.9872084" lon="10.1721686"><ele>4.0</ele><time>2026-03-22T08:23:37.909Z</time></trkpt><trkpt lat="43.987169" lon="10.1720956"><ele>4.0</ele><time>2026-03-22T08:23:42.908Z</time></trkpt><trkpt lat="43.9868629" lon="10.1715078"><ele>4.0</ele><time>2026-03-22T08:24:27.908Z</time></trkpt><trkpt lat="43.9868267" lon="10.1714295"><ele>4.0</ele><time>2026-03-22T08:24:32.905Z</time></trkpt><trkpt lat="43.9867865" lon="10.1713556"><ele>4.0</ele><time>2026-03-22T08:24:41.911Z</time></trkpt><trkpt lat="43.9865595" lon="10.170936"><ele>4.333333333333333</ele><time>2026-03-22T08:25:28.912Z</time></trkpt><trkpt lat="43.9864957" lon="10.1708064"><ele>4.666666666666667</ele><time>2026-03-22T08:25:39.906Z</time></trkpt><trkpt lat="43.9864639" lon="10.1707157"><ele>5.0</ele><time>2026-03-22T08:25:45.912Z</time></trkpt><trkpt lat="43.9819878" lon="10.1645901"><ele>5.0</ele><time>2026-03-22T08:35:26.869Z</time></trkpt><trkpt lat="43.9819529" lon="10.1645047"><ele>5.0</ele><time>2026-03-22T08:35:29.877Z</time></trkpt><trkpt lat="43.9819472" lon="10.1644026"><ele>5.0</ele><time>2026-03-22T08:35:39.917Z</time></trkpt><trkpt lat="43.9819349" lon="10.1643046"><ele>5.0</ele><time>2026-03-22T08:35:47.921Z</time></trkpt><trkpt lat="43.981909" lon="10.1642096"><ele>5.0</ele><time>2026-03-22T08:35:53.925Z</time></trkpt><trkpt lat="43.9818998" lon="10.1640222"><ele>5.0</ele><time>2026-03-22T08:36:26.93Z</time></trkpt><trkpt lat="43.9818548" lon="10.1508907"><ele>2.0</ele><time>2026-03-22T08:51:28.915Z</time></trkpt><trkpt lat="43.982484" lon="10.1510667"><ele>2.0</ele><time>2026-03-22T08:51:46.864Z</time></trkpt><trkpt lat="43.9819152" lon="10.1507156"><ele>1.857142857142857</ele><time>2026-03-22T08:51:47.872Z</time></trkpt><trkpt lat="43.9818234" lon="10.150656"><ele>1.714285714285714</ele><time>2026-03-22T08:51:48.864Z</time></trkpt><trkpt lat="43.9818684" lon="10.1505787"><ele>1.5714285714285714</ele><time>2026-03-22T08:51:55.899Z</time></trkpt><trkpt lat="43.9818676" lon="10.1504791"><ele>1.4285714285714284</ele><time>2026-03-22T08:52:04.901Z</time></trkpt><trkpt lat="43.9818904" lon="10.1503951"><ele>1.2857142857142856</ele><time>2026-03-22T08:52:10.91Z</time></trkpt><trkpt lat="43.9818499" lon="10.1503163"><ele>1.1428571428571428</ele><time>2026-03-22T08:52:33.898Z</time></trkpt><trkpt lat="43.9818306" lon="10.1502243"><ele>1.0</ele><time>2026-03-22T08:52:40.908Z</time></trkpt><trkpt lat="43.9819747" lon="10.1501813"><ele>1.0</ele><time>2026-03-22T08:52:59.858Z</time></trkpt><trkpt lat="43.9819604" lon="10.1500896"><ele>0.9999999999999999</ele><time>2026-03-22T08:53:04.878Z</time></trkpt><trkpt lat="43.9819114" lon="10.1500312"><ele>1.0</ele><time>2026-03-22T08:53:06.88Z</time></trkpt><trkpt lat="43.9818604" lon="10.1499664"><ele>1.0</ele><time>2026-03-22T08:53:09.896Z</time></trkpt><trkpt lat="43.9818446" lon="10.1498737"><ele>0.9999999999999999</ele><time>2026-03-22T08:53:14.91Z</time></trkpt><trkpt lat="43.9818357" lon="10.1497797"><ele>1.0</ele><time>2026-03-22T08:53:20.909Z</time></trkpt><trkpt lat="43.9818252" lon="10.1496798"><ele>1.0</ele><time>2026-03-22T08:53:27.9Z</time></trkpt><trkpt lat="43.9817866" lon="10.1495872"><ele>1.0</ele><time>2026-03-22T08:53:31.859Z</time></trkpt><trkpt lat="43.982266" lon="10.1493329"><ele>4.0</ele><time>2026-03-22T08:53:40.85Z</time></trkpt><trkpt lat="43.9828355" lon="10.1503244"><ele>3.0</ele><time>2026-03-22T08:53:41.865Z</time></trkpt><trkpt lat="43.9839732" lon="10.151112"><ele>2.0</ele><time>2026-03-22T08:53:43.863Z</time></trkpt><trkpt lat="43.9805576" lon="10.1496003"><ele>0.0</ele><time>2026-03-22T08:53:44.862Z</time></trkpt><trkpt lat="43.9814009" lon="10.1497457"><ele>0.25</ele><time>2026-03-22T08:53:45.854Z</time></trkpt><trkpt lat="43.9816906" lon="10.1497403"><ele>0.5</ele><time>2026-03-22T08:53:46.836Z</time></trkpt><trkpt lat="43.981766" lon="10.1497037"><ele>0.75</ele><time>2026-03-22T08:53:47.84Z</time></trkpt><trkpt lat="43.9817601" lon="10.149613"><ele>1.0</ele><time>2026-03-22T08:54:09.91Z</time></trkpt><trkpt lat="43.9817611" lon="10.1495129"><ele>1.0</ele><time>2026-03-22T08:54:16.886Z</time></trkpt><trkpt lat="43.9817742" lon="10.1494269"><ele>0.9999999999999999</ele><time>2026-03-22T08:54:31.905Z</time></trkpt><trkpt lat="43.9817658" lon="10.149323"><ele>1.0</ele><time>2026-03-22T08:54:34.898Z</time></trkpt><trkpt lat="43.9817287" lon="10.1492302"><ele>1.0</ele><time>2026-03-22T08:54:39.901Z</time></trkpt><trkpt lat="43.9816876" lon="10.149159"><ele>0.9999999999999999</ele><time>2026-03-22T08:54:44.911Z</time></trkpt><trkpt lat="43.9816656" lon="10.1490737"><ele>1.0</ele><time>2026-03-22T08:54:48.917Z</time></trkpt><trkpt lat="43.9816126" lon="10.1490106"><ele>1.0</ele><time>2026-03-22T08:54:53.924Z</time></trkpt><trkpt lat="43.9815482" lon="10.1489602"><ele>1.0</ele><time>2026-03-22T08:54:59.92Z</time></trkpt><trkpt lat="43.981486" lon="10.1489206"><ele>0.9999999999999999</ele><time>2026-03-22T08:55:07.914Z</time></trkpt><trkpt lat="43.9814637" lon="10.148836"><ele>1.0</ele><time>2026-03-22T08:55:12.913Z</time></trkpt><trkpt lat="43.9814251" lon="10.1487634"><ele>1.0</ele><time>2026-03-22T08:55:17.911Z</time></trkpt><trkpt lat="43.9813701" lon="10.1486897"><ele>0.9999999999999999</ele><time>2026-03-22T08:55:22.918Z</time></trkpt><trkpt lat="43.9813537" lon="10.1485894"><ele>1.0</ele><time>2026-03-22T08:55:28.911Z</time></trkpt><trkpt lat="43.9813307" lon="10.1484943"><ele>1.0</ele><time>2026-03-22T08:55:34.904Z</time></trkpt><trkpt lat="43.9812921" lon="10.148419"><ele>1.0</ele><time>2026-03-22T08:55:40.915Z</time></trkpt><trkpt lat="43.9812563" lon="10.1483317"><ele>0.9999999999999999</ele><time>2026-03-22T08:55:45.924Z</time></trkpt><trkpt lat="43.981229" lon="10.1482467"><ele>1.0</ele><time>2026-03-22T08:55:50.921Z</time></trkpt><trkpt lat="43.9811923" lon="10.1481579"><ele>1.0</ele><time>2026-03-22T08:55:55.92Z</time></trkpt><trkpt lat="43.9811623" lon="10.1480722"><ele>0.9999999999999999</ele><time>2026-03-22T08:56:01.925Z</time></trkpt><trkpt lat="43.9811159" lon="10.1480091"><ele>1.0</ele><time>2026-03-22T08:56:07.921Z</time></trkpt><trkpt lat="43.9810677" lon="10.1479515"><ele>1.0</ele><time>2026-03-22T08:56:12.918Z</time></trkpt><trkpt lat="43.9810308" lon="10.1478674"><ele>1.0</ele><time>2026-03-22T08:56:19.919Z</time></trkpt><trkpt lat="43.9809909" lon="10.1477974"><ele>0.9999999999999999</ele><time>2026-03-22T08:56:24.916Z</time></trkpt><trkpt lat="43.9809528" lon="10.1477175"><ele>1.0</ele><time>2026-03-22T08:56:29.908Z</time></trkpt><trkpt lat="43.9809055" lon="10.1476426"><ele>1.0</ele><time>2026-03-22T08:56:35.914Z</time></trkpt><trkpt lat="43.9808598" lon="10.1475702"><ele>0.9999999999999999</ele><time>2026-03-22T08:56:41.912Z</time></trkpt><trkpt lat="43.9808146" lon="10.1475076"><ele>1.0</ele><time>2026-03-22T08:56:46.923Z</time></trkpt><trkpt lat="43.980784" lon="10.1474218"><ele>1.0</ele><time>2026-03-22T08:56:52.921Z</time></trkpt><trkpt lat="43.9807514" lon="10.1473374"><ele>0.5714285714285714</ele><time>2026-03-22T08:56:58.925Z</time></trkpt><trkpt lat="43.9807036" lon="10.1472655"><ele>0.1428571428571428</ele><time>2026-03-22T08:57:04.917Z</time></trkpt><trkpt lat="43.9806506" lon="10.1471985"><ele>-0.2857142857142857</ele><time>2026-03-22T08:57:10.916Z</time></trkpt><trkpt lat="43.9806004" lon="10.1471259"><ele>-0.7142857142857142</ele><time>2026-03-22T08:57:16.932Z</time></trkpt><trkpt lat="43.9805605" lon="10.1470516"><ele>-1.1428571428571428</ele><time>2026-03-22T08:57:27.916Z</time></trkpt><trkpt lat="43.9805087" lon="10.1469962"><ele>-1.5714285714285714</ele><time>2026-03-22T08:57:33.919Z</time></trkpt><trkpt lat="43.9804378" lon="10.1469472"><ele>-2.0</ele><time>2026-03-22T08:57:39.926Z</time></trkpt><trkpt lat="43.980393" lon="10.1468606"><ele>-2.0</ele><time>2026-03-22T08:57:44.925Z</time></trkpt><trkpt lat="43.9803641" lon="10.146779"><ele>-1.9999999999999998</ele><time>2026-03-22T08:57:49.918Z</time></trkpt><trkpt lat="43.9804289" lon="10.1467858"><ele>-2.0</ele><time>2026-03-22T08:57:56.92Z</time></trkpt><trkpt lat="43.9804912" lon="10.1467635"><ele>-2.0</ele><time>2026-03-22T08:58:02.911Z</time></trkpt><trkpt lat="43.9804195" lon="10.1467271"><ele>-1.9999999999999998</ele><time>2026-03-22T08:58:19.91Z</time></trkpt><trkpt lat="43.9803567" lon="10.1467343"><ele>-2.0</ele><time>2026-03-22T08:58:22.918Z</time></trkpt><trkpt lat="43.9802932" lon="10.1467231"><ele>-2.0</ele><time>2026-03-22T08:58:27.921Z</time></trkpt><trkpt lat="43.9802722" lon="10.1466255"><ele>-2.0</ele><time>2026-03-22T08:58:32.927Z</time></trkpt><trkpt lat="43.9802227" lon="10.146561"><ele>-2.0</ele><time>2026-03-22T08:58:40.919Z</time></trkpt><trkpt lat="43.9801624" lon="10.1465027"><ele>0.0</ele><time>2026-03-22T08:58:46.922Z</time></trkpt><trkpt lat="43.9801061" lon="10.1464559"><ele>0.0</ele><time>2026-03-22T08:58:57.915Z</time></trkpt><trkpt lat="43.9800528" lon="10.1464043"><ele>0.0</ele><time>2026-03-22T08:59:01.925Z</time></trkpt><trkpt lat="43.9800074" lon="10.1463289"><ele>0.0</ele><time>2026-03-22T08:59:08.921Z</time></trkpt></trkseg><trkseg><trkpt lat="43.978625" lon="10.1459421"><ele>4.0</ele><time>2026-03-22T09:12:55.822Z</time></trkpt><trkpt lat="43.9784418" lon="10.1459939"><ele>4.0</ele><time>2026-03-22T09:13:13.875Z</time></trkpt><trkpt lat="43.9782702" lon="10.1461137"><ele>4.0</ele><time>2026-03-22T09:13:38.895Z</time></trkpt><trkpt lat="43.9781711" lon="10.1463905"><ele>4.0</ele><time>2026-03-22T09:13:58.914Z</time></trkpt><trkpt lat="43.9774944" lon="10.1472858"><ele>3.0</ele><time>2026-03-22T09:15:22.258Z</time></trkpt><trkpt lat="43.9768779" lon="10.1480043"><ele>4.0</ele><time>2026-03-22T09:16:50.26Z</time></trkpt><trkpt lat="43.9769862" lon="10.1493737"><ele>4.0</ele><time>2026-03-22T09:18:43.202Z</time></trkpt><trkpt lat="43.9771593" lon="10.1492587"><ele>4.0</ele><time>2026-03-22T09:18:52.187Z</time></trkpt><trkpt lat="43.9772334" lon="10.1492852"><ele>4.0</ele><time>2026-03-22T09:18:59.233Z</time></trkpt><trkpt lat="43.9772375" lon="10.1493783"><ele>4.0</ele><time>2026-03-22T09:19:04.248Z</time></trkpt><trkpt lat="43.9772294" lon="10.1494815"><ele>4.0</ele><time>2026-03-22T09:19:08.26Z</time></trkpt><trkpt lat="43.9772413" lon="10.1495678"><ele>4.0</ele><time>2026-03-22T09:19:12.255Z</time></trkpt><trkpt lat="43.9772791" lon="10.1496446"><ele>3.9999999999999996</ele><time>2026-03-22T09:19:17.254Z</time></trkpt><trkpt lat="43.9773192" lon="10.1497287"><ele>4.0</ele><time>2026-03-22T09:19:23.245Z</time></trkpt><trkpt lat="43.9773573" lon="10.1497989"><ele>4.0</ele><time>2026-03-22T09:19:28.245Z</time></trkpt><trkpt lat="43.9773892" lon="10.149884"><ele>3.9999999999999996</ele><time>2026-03-22T09:19:33.253Z</time></trkpt><trkpt lat="43.9774242" lon="10.1499593"><ele>4.0</ele><time>2026-03-22T09:19:41.206Z</time></trkpt><trkpt lat="43.9774341" lon="10.1500623"><ele>4.0</ele><time>2026-03-22T09:19:52.191Z</time></trkpt><trkpt lat="43.9774522" lon="10.1501687"><ele>4.0</ele><time>2026-03-22T09:19:55.192Z</time></trkpt><trkpt lat="43.9776517" lon="10.1504713"><ele>4.0</ele><time>2026-03-22T09:20:19.255Z</time></trkpt><trkpt lat="43.9775933" lon="10.1505375"><ele>4.0</ele><time>2026-03-22T09:20:24.251Z</time></trkpt><trkpt lat="43.9775388" lon="10.1506065"><ele>4.0</ele><time>2026-03-22T09:20:31.253Z</time></trkpt><trkpt lat="43.9774472" lon="10.1506885"><ele>4.0</ele><time>2026-03-22T09:20:40.256Z</time></trkpt><trkpt lat="43.9773867" lon="10.1507474"><ele>4.0</ele><time>2026-03-22T09:20:47.246Z</time></trkpt><trkpt lat="43.9771833" lon="10.1510683"><ele>4.0</ele><time>2026-03-22T09:21:20.254Z</time></trkpt><trkpt lat="43.976923" lon="10.1512365"><ele>7.0</ele><time>2026-03-22T09:22:23.234Z</time></trkpt><trkpt lat="43.9781918" lon="10.1559625"><ele>7.000000000000001</ele><time>2026-03-22T09:30:13.202Z</time></trkpt><trkpt lat="43.9782621" lon="10.155989"><ele>7.0</ele><time>2026-03-22T09:30:17.166Z</time></trkpt><trkpt lat="43.9783339" lon="10.1560122"><ele>7.0</ele><time>2026-03-22T09:30:21.172Z</time></trkpt><trkpt lat="43.9783766" lon="10.1561567"><ele>7.0</ele><time>2026-03-22T09:30:31.241Z</time></trkpt><trkpt lat="43.9784132" lon="10.1562547"><ele>7.000000000000001</ele><time>2026-03-22T09:30:36.248Z</time></trkpt><trkpt lat="43.978415" lon="10.1563456"><ele>7.0</ele><time>2026-03-22T09:30:39.258Z</time></trkpt><trkpt lat="43.9784072" lon="10.1564485"><ele>6.714285714285714</ele><time>2026-03-22T09:30:43.25Z</time></trkpt><trkpt lat="43.9783973" lon="10.1565455"><ele>6.428571428571429</ele><time>2026-03-22T09:30:47.259Z</time></trkpt><trkpt lat="43.9783649" lon="10.1566246"><ele>6.142857142857142</ele><time>2026-03-22T09:30:51.255Z</time></trkpt><trkpt lat="43.9783225" lon="10.1566952"><ele>5.857142857142858</ele><time>2026-03-22T09:30:56.258Z</time></trkpt><trkpt lat="43.9782819" lon="10.1567699"><ele>5.571428571428571</ele><time>2026-03-22T09:31:02.26Z</time></trkpt><trkpt lat="43.9782845" lon="10.156867"><ele>5.285714285714286</ele><time>2026-03-22T09:31:10.252Z</time></trkpt><trkpt lat="43.9783382" lon="10.1569355"><ele>5.0</ele><time>2026-03-22T09:31:19.257Z</time></trkpt><trkpt lat="43.9783975" lon="10.1569903"><ele>5.0</ele><time>2026-03-22T09:31:26.255Z</time></trkpt><trkpt lat="43.9784479" lon="10.1570431"><ele>5.0</ele><time>2026-03-22T09:31:32.257Z</time></trkpt><trkpt lat="43.9784842" lon="10.157129"><ele>5.0</ele><time>2026-03-22T09:31:40.258Z</time></trkpt><trkpt lat="43.9785316" lon="10.157193"><ele>5.0</ele><time>2026-03-22T09:31:46.259Z</time></trkpt><trkpt lat="43.9785533" lon="10.1572836"><ele>5.0</ele><time>2026-03-22T09:31:51.254Z</time></trkpt><trkpt lat="43.9784836" lon="10.1574305"><ele>5.0</ele><time>2026-03-22T09:32:04.615Z</time></trkpt><trkpt lat="43.9785484" lon="10.1574401"><ele>5.0</ele><time>2026-03-22T09:32:12.208Z</time></trkpt><trkpt lat="43.9785901" lon="10.1575071"><ele>5.0</ele><time>2026-03-22T09:32:16.226Z</time></trkpt><trkpt lat="43.9787603" lon="10.1577328"><ele>5.0</ele><time>2026-03-22T09:32:30.251Z</time></trkpt><trkpt lat="43.9788167" lon="10.1577922"><ele>5.0</ele><time>2026-03-22T09:32:36.257Z</time></trkpt><trkpt lat="43.9789498" lon="10.157701"><ele>5.0</ele><time>2026-03-22T09:32:50.256Z</time></trkpt><trkpt lat="43.9789986" lon="10.1580824"><ele>5.0</ele><time>2026-03-22T09:33:38.245Z</time></trkpt><trkpt lat="43.9790373" lon="10.1581665"><ele>5.0</ele><time>2026-03-22T09:33:43.251Z</time></trkpt><trkpt lat="43.9791164" lon="10.1627014"><ele>4.8</ele><time>2026-03-22T09:41:06.197Z</time></trkpt><trkpt lat="43.9792256" lon="10.1628329"><ele>4.6</ele><time>2026-03-22T09:41:13.18Z</time></trkpt><trkpt lat="43.979249" lon="10.1629514"><ele>4.4</ele><time>2026-03-22T09:41:15.221Z</time></trkpt><trkpt lat="43.9792456" lon="10.1628584"><ele>4.2</ele><time>2026-03-22T09:41:20.246Z</time></trkpt><trkpt lat="43.9792844" lon="10.1629533"><ele>4.0</ele><time>2026-03-22T09:41:25.254Z</time></trkpt><trkpt lat="43.9793148" lon="10.1630514"><ele>4.0</ele><time>2026-03-22T09:41:30.254Z</time></trkpt><trkpt lat="43.9793639" lon="10.1631143"><ele>4.0</ele><time>2026-03-22T09:41:35.261Z</time></trkpt><trkpt lat="43.9794087" lon="10.1631827"><ele>4.0</ele><time>2026-03-22T09:41:41.258Z</time></trkpt><trkpt lat="43.9794459" lon="10.1634518"><ele>4.0</ele><time>2026-03-22T09:42:05.254Z</time></trkpt><trkpt lat="43.9793886" lon="10.1634889"><ele>4.0</ele><time>2026-03-22T09:42:10.255Z</time></trkpt><trkpt lat="43.9793396" lon="10.1635575"><ele>3.0</ele><time>2026-03-22T09:42:23.246Z</time></trkpt><trkpt lat="43.9783727" lon="10.1664113"><ele>2.5</ele><time>2026-03-22T09:47:43.2Z</time></trkpt><trkpt lat="43.9782801" lon="10.166571"><ele>2.0</ele><time>2026-03-22T09:47:56.179Z</time></trkpt><trkpt lat="43.9782459" lon="10.1666732"><ele>1.5</ele><time>2026-03-22T09:48:02.216Z</time></trkpt><trkpt lat="43.9781856" lon="10.1667109"><ele>1.0</ele><time>2026-03-22T09:48:16.224Z</time></trkpt><trkpt lat="43.978132" lon="10.1667606"><ele>0.5</ele><time>2026-03-22T09:48:22.224Z</time></trkpt><trkpt lat="43.9780848" lon="10.1668284"><ele>0.0</ele><time>2026-03-22T09:48:29.219Z</time></trkpt><trkpt lat="43.9780357" lon="10.1669034"><ele>0.0</ele><time>2026-03-22T09:48:36.225Z</time></trkpt><trkpt lat="43.9779751" lon="10.1669602"><ele>0.0</ele><time>2026-03-22T09:48:46.218Z</time></trkpt><trkpt lat="43.9779174" lon="10.1670271"><ele>0.0</ele><time>2026-03-22T09:48:51.22Z</time></trkpt><trkpt lat="43.977865" lon="10.1670968"><ele>0.0</ele><time>2026-03-22T09:48:59.223Z</time></trkpt><trkpt lat="43.9778007" lon="10.167137"><ele>0.0</ele><time>2026-03-22T09:49:06.216Z</time></trkpt><trkpt lat="43.9777457" lon="10.1671998"><ele>0.0</ele><time>2026-03-22T09:49:13.223Z</time></trkpt><trkpt lat="43.9776919" lon="10.1672624"><ele>0.0</ele><time>2026-03-22T09:49:19.225Z</time></trkpt><trkpt lat="43.9776344" lon="10.16732"><ele>0.2857142857142857</ele><time>2026-03-22T09:49:24.222Z</time></trkpt><trkpt lat="43.9775789" lon="10.1673723"><ele>0.5714285714285714</ele><time>2026-03-22T09:49:30.222Z</time></trkpt><trkpt lat="43.9775311" lon="10.1674349"><ele>0.8571428571428571</ele><time>2026-03-22T09:49:36.225Z</time></trkpt><trkpt lat="43.9774783" lon="10.16749"><ele>1.1428571428571428</ele><time>2026-03-22T09:49:42.223Z</time></trkpt><trkpt lat="43.9774232" lon="10.1675494"><ele>1.4285714285714284</ele><time>2026-03-22T09:49:49.227Z</time></trkpt><trkpt lat="43.9773746" lon="10.167623"><ele>1.7142857142857142</ele><time>2026-03-22T09:49:56.226Z</time></trkpt><trkpt lat="43.9773292" lon="10.1677012"><ele>2.0</ele><time>2026-03-22T09:50:03.217Z</time></trkpt><trkpt lat="43.9772879" lon="10.1677782"><ele>2.0</ele><time>2026-03-22T09:50:11.225Z</time></trkpt><trkpt lat="43.9772293" lon="10.1678308"><ele>1.9999999999999998</ele><time>2026-03-22T09:50:18.226Z</time></trkpt><trkpt lat="43.977181" lon="10.1679047"><ele>2.0</ele><time>2026-03-22T09:50:24.225Z</time></trkpt><trkpt lat="43.9771173" lon="10.1679592"><ele>2.0</ele><time>2026-03-22T09:50:31.218Z</time></trkpt><trkpt lat="43.9770687" lon="10.1680298"><ele>1.9999999999999998</ele><time>2026-03-22T09:50:37.221Z</time></trkpt><trkpt lat="43.977025" lon="10.1681023"><ele>2.0</ele><time>2026-03-22T09:50:44.223Z</time></trkpt><trkpt lat="43.9769824" lon="10.1681903"><ele>2.0</ele><time>2026-03-22T09:50:50.223Z</time></trkpt><trkpt lat="43.9769584" lon="10.1682822"><ele>2.2857142857142856</ele><time>2026-03-22T09:50:56.225Z</time></trkpt><trkpt lat="43.9769753" lon="10.1683688"><ele>2.571428571428571</ele><time>2026-03-22T09:51:02.227Z</time></trkpt><trkpt lat="43.9770143" lon="10.1684488"><ele>2.8571428571428568</ele><time>2026-03-22T09:51:07.231Z</time></trkpt><trkpt lat="43.9770609" lon="10.1685181"><ele>3.142857142857143</ele><time>2026-03-22T09:51:14.237Z</time></trkpt><trkpt lat="43.9770999" lon="10.1685911"><ele>3.428571428571428</ele><time>2026-03-22T09:51:20.227Z</time></trkpt><trkpt lat="43.9771573" lon="10.1686293"><ele>3.714285714285714</ele><time>2026-03-22T09:51:24.234Z</time></trkpt><trkpt lat="43.9772204" lon="10.1686699"><ele>4.0</ele><time>2026-03-22T09:51:29.232Z</time></trkpt><trkpt lat="43.9772815" lon="10.1686991"><ele>4.0</ele><time>2026-03-22T09:51:35.227Z</time></trkpt><trkpt lat="43.9773507" lon="10.1687184"><ele>3.9999999999999996</ele><time>2026-03-22T09:51:40.23Z</time></trkpt><trkpt lat="43.9774104" lon="10.1687786"><ele>4.0</ele><time>2026-03-22T09:51:46.231Z</time></trkpt><trkpt lat="43.9774348" lon="10.1688644"><ele>4.0</ele><time>2026-03-22T09:51:53.23Z</time></trkpt><trkpt lat="43.977467" lon="10.1689524"><ele>3.9999999999999996</ele><time>2026-03-22T09:51:58.236Z</time></trkpt><trkpt lat="43.9774776" lon="10.1690498"><ele>4.0</ele><time>2026-03-22T09:52:04.226Z</time></trkpt><trkpt lat="43.9774803" lon="10.1691449"><ele>4.0</ele><time>2026-03-22T09:52:11.231Z</time></trkpt><trkpt lat="43.977511" lon="10.1692283"><ele>4.571428571428571</ele><time>2026-03-22T09:52:17.231Z</time></trkpt><trkpt lat="43.9775391" lon="10.1693176"><ele>5.142857142857142</ele><time>2026-03-22T09:52:23.231Z</time></trkpt><trkpt lat="43.977578" lon="10.1693924"><ele>5.7142857142857135</ele><time>2026-03-22T09:52:29.233Z</time></trkpt><trkpt lat="43.9776168" lon="10.169475"><ele>6.285714285714286</ele><time>2026-03-22T09:52:34.233Z</time></trkpt><trkpt lat="43.9776584" lon="10.169549"><ele>6.857142857142856</ele><time>2026-03-22T09:52:41.23Z</time></trkpt><trkpt lat="43.977717" lon="10.1696144"><ele>7.428571428571428</ele><time>2026-03-22T09:52:47.234Z</time></trkpt><trkpt lat="43.977769" lon="10.1696684"><ele>8.0</ele><time>2026-03-22T09:52:51.241Z</time></trkpt><trkpt lat="43.9778249" lon="10.1697262"><ele>8.0</ele><time>2026-03-22T09:52:56.237Z</time></trkpt><trkpt lat="43.9778814" lon="10.1697703"><ele>7.999999999999999</ele><time>2026-03-22T09:53:03.249Z</time></trkpt><trkpt lat="43.977936" lon="10.1698265"><ele>8.0</ele><time>2026-03-22T09:53:10.231Z</time></trkpt><trkpt lat="43.9779861" lon="10.1698841"><ele>8.0</ele><time>2026-03-22T09:53:17.24Z</time></trkpt><trkpt lat="43.9780373" lon="10.1699397"><ele>7.999999999999999</ele><time>2026-03-22T09:53:23.236Z</time></trkpt><trkpt lat="43.9780873" lon="10.1699939"><ele>8.0</ele><time>2026-03-22T09:53:29.241Z</time></trkpt><trkpt lat="43.9781366" lon="10.1700541"><ele>8.0</ele><time>2026-03-22T09:53:34.253Z</time></trkpt><trkpt lat="43.9781778" lon="10.1701288"><ele>7.428571428571428</ele><time>2026-03-22T09:53:40.239Z</time></trkpt><trkpt lat="43.9782163" lon="10.1702194"><ele>6.857142857142856</ele><time>2026-03-22T09:53:47.234Z</time></trkpt><trkpt lat="43.9782649" lon="10.1702988"><ele>6.285714285714286</ele><time>2026-03-22T09:53:52.22Z</time></trkpt><trkpt lat="43.9783163" lon="10.1703641"><ele>5.7142857142857135</ele><time>2026-03-22T09:53:58.236Z</time></trkpt><trkpt lat="43.9783791" lon="10.1704054"><ele>5.142857142857142</ele><time>2026-03-22T09:54:05.248Z</time></trkpt><trkpt lat="43.978426" lon="10.1704651"><ele>4.571428571428571</ele><time>2026-03-22T09:54:11.235Z</time></trkpt><trkpt lat="43.9784636" lon="10.17054"><ele>4.0</ele><time>2026-03-22T09:54:17.232Z</time></trkpt><trkpt lat="43.978506" lon="10.1706217"><ele>4.0</ele><time>2026-03-22T09:54:22.237Z</time></trkpt><trkpt lat="43.9785645" lon="10.1706877"><ele>4.0</ele><time>2026-03-22T09:54:29.243Z</time></trkpt><trkpt lat="43.9786085" lon="10.1707532"><ele>4.0</ele><time>2026-03-22T09:54:35.244Z</time></trkpt><trkpt lat="43.9786609" lon="10.1708116"><ele>4.0</ele><time>2026-03-22T09:54:41.241Z</time></trkpt><trkpt lat="43.9787065" lon="10.1708786"><ele>4.0</ele><time>2026-03-22T09:54:49.199Z</time></trkpt><trkpt lat="43.9789249" lon="10.1714548"><ele>3.5</ele><time>2026-03-22T09:55:38.247Z</time></trkpt><trkpt lat="43.9790512" lon="10.1718165"><ele>3.0</ele><time>2026-03-22T09:56:13.251Z</time></trkpt><trkpt lat="43.9790893" lon="10.1718902"><ele>2.5</ele><time>2026-03-22T09:56:18.235Z</time></trkpt><trkpt lat="43.9791193" lon="10.1719877"><ele>2.0</ele><time>2026-03-22T09:56:26.246Z</time></trkpt><trkpt lat="43.979317" lon="10.1725617"><ele>2.0</ele><time>2026-03-22T09:57:09.246Z</time></trkpt><trkpt lat="43.9793604" lon="10.1726455"><ele>2.0</ele><time>2026-03-22T09:57:14.25Z</time></trkpt><trkpt lat="43.9793884" lon="10.172732"><ele>2.0</ele><time>2026-03-22T09:57:20.243Z</time></trkpt><trkpt lat="43.979521" lon="10.1730798"><ele>2.0</ele><time>2026-03-22T09:57:45.226Z</time></trkpt><trkpt lat="43.9795466" lon="10.1731724"><ele>1.8333333333333333</ele><time>2026-03-22T09:57:52.151Z</time></trkpt><trkpt lat="43.9795654" lon="10.1732625"><ele>1.6666666666666665</ele><time>2026-03-22T09:57:59.151Z</time></trkpt><trkpt lat="43.9795987" lon="10.1734064"><ele>1.5</ele><time>2026-03-22T09:58:04.172Z</time></trkpt><trkpt lat="43.9796402" lon="10.1734735"><ele>1.3333333333333333</ele><time>2026-03-22T09:58:09.199Z</time></trkpt><trkpt lat="43.979635" lon="10.1735746"><ele>1.1666666666666665</ele><time>2026-03-22T09:58:19.238Z</time></trkpt><trkpt lat="43.9796842" lon="10.1736498"><ele>1.0</ele><time>2026-03-22T09:58:25.242Z</time></trkpt><trkpt lat="43.9797509" lon="10.1737036"><ele>1.0</ele><time>2026-03-22T09:58:30.238Z</time></trkpt><trkpt lat="43.9798199" lon="10.1737416"><ele>0.9999999999999999</ele><time>2026-03-22T09:58:34.242Z</time></trkpt><trkpt lat="43.9798551" lon="10.1738224"><ele>1.0</ele><time>2026-03-22T09:58:38.232Z</time></trkpt><trkpt lat="43.9798967" lon="10.1739131"><ele>1.0</ele><time>2026-03-22T09:58:44.228Z</time></trkpt><trkpt lat="43.979934" lon="10.1739954"><ele>0.9999999999999999</ele><time>2026-03-22T09:58:50.244Z</time></trkpt><trkpt lat="43.9799817" lon="10.1740675"><ele>1.0</ele><time>2026-03-22T09:58:55.246Z</time></trkpt><trkpt lat="43.9800184" lon="10.1741493"><ele>1.0</ele><time>2026-03-22T09:59:00.237Z</time></trkpt><trkpt lat="43.9800585" lon="10.1742175"><ele>0.42857142857142855</ele><time>2026-03-22T09:59:06.243Z</time></trkpt><trkpt lat="43.9800819" lon="10.1743054"><ele>-0.1428571428571429</ele><time>2026-03-22T09:59:13.252Z</time></trkpt><trkpt lat="43.9801253" lon="10.1743852"><ele>-0.7142857142857142</ele><time>2026-03-22T09:59:18.251Z</time></trkpt><trkpt lat="43.9801558" lon="10.1744679"><ele>-1.2857142857142856</ele><time>2026-03-22T09:59:23.232Z</time></trkpt><trkpt lat="43.9801733" lon="10.1745681"><ele>-1.8571428571428572</ele><time>2026-03-22T09:59:29.241Z</time></trkpt><trkpt lat="43.9802031" lon="10.1746584"><ele>-2.4285714285714284</ele><time>2026-03-22T09:59:36.238Z</time></trkpt><trkpt lat="43.9802419" lon="10.1747332"><ele>-3.0</ele><time>2026-03-22T09:59:42.245Z</time></trkpt><trkpt lat="43.9802853" lon="10.1748323"><ele>-2.714285714285714</ele><time>2026-03-22T09:59:49.238Z</time></trkpt><trkpt lat="43.9803159" lon="10.1749179"><ele>-2.4285714285714284</ele><time>2026-03-22T09:59:55.245Z</time></trkpt><trkpt lat="43.9803472" lon="10.1749964"><ele>-2.142857142857143</ele><time>2026-03-22T10:00:01.252Z</time></trkpt><trkpt lat="43.9803867" lon="10.1750668"><ele>-1.857142857142857</ele><time>2026-03-22T10:00:06.236Z</time></trkpt><trkpt lat="43.9804228" lon="10.1751411"><ele>-1.5714285714285712</ele><time>2026-03-22T10:00:11.238Z</time></trkpt><trkpt lat="43.9804211" lon="10.1752305"><ele>-1.2857142857142856</ele><time>2026-03-22T10:00:16.241Z</time></trkpt><trkpt lat="43.9804215" lon="10.1753186"><ele>-1.0</ele><time>2026-03-22T10:00:22.246Z</time></trkpt><trkpt lat="43.9804476" lon="10.1754048"><ele>-1.0</ele><time>2026-03-22T10:00:27.244Z</time></trkpt><trkpt lat="43.9804847" lon="10.1754826"><ele>-0.9999999999999999</ele><time>2026-03-22T10:00:32.244Z</time></trkpt><trkpt lat="43.9805155" lon="10.1755742"><ele>-1.0</ele><time>2026-03-22T10:00:38.235Z</time></trkpt><trkpt lat="43.9805563" lon="10.1756433"><ele>-1.0</ele><time>2026-03-22T10:00:44.242Z</time></trkpt><trkpt lat="43.9805903" lon="10.1757227"><ele>-0.9999999999999999</ele><time>2026-03-22T10:00:50.248Z</time></trkpt><trkpt lat="43.9806259" lon="10.1758113"><ele>-1.0</ele><time>2026-03-22T10:00:57.246Z</time></trkpt><trkpt lat="43.980658" lon="10.1759048"><ele>-1.0</ele><time>2026-03-22T10:01:02.25Z</time></trkpt><trkpt lat="43.9806721" lon="10.1759966"><ele>-0.8571428571428571</ele><time>2026-03-22T10:01:07.247Z</time></trkpt><trkpt lat="43.9807047" lon="10.1760789"><ele>-0.7142857142857142</ele><time>2026-03-22T10:01:15.247Z</time></trkpt><trkpt lat="43.980733" lon="10.1761608"><ele>-0.5714285714285714</ele><time>2026-03-22T10:01:21.243Z</time></trkpt><trkpt lat="43.9807729" lon="10.1762287"><ele>-0.42857142857142855</ele><time>2026-03-22T10:01:28.243Z</time></trkpt><trkpt lat="43.9808165" lon="10.1763201"><ele>-0.2857142857142857</ele><time>2026-03-22T10:01:35.237Z</time></trkpt><trkpt lat="43.9808395" lon="10.1764126"><ele>-0.14285714285714285</ele><time>2026-03-22T10:01:48.254Z</time></trkpt><trkpt lat="43.9808826" lon="10.1764907"><ele>0.0</ele><time>2026-03-22T10:01:55.244Z</time></trkpt><trkpt lat="43.980915" lon="10.1765813"><ele>0.5714285714285714</ele><time>2026-03-22T10:02:07.232Z</time></trkpt><trkpt lat="43.9809458" lon="10.1766709"><ele>1.1428571428571428</ele><time>2026-03-22T10:02:13.244Z</time></trkpt><trkpt lat="43.9809844" lon="10.1767532"><ele>1.7142857142857142</ele><time>2026-03-22T10:02:18.246Z</time></trkpt><trkpt lat="43.9810075" lon="10.1768357"><ele>2.2857142857142856</ele><time>2026-03-22T10:02:24.235Z</time></trkpt><trkpt lat="43.9810254" lon="10.1769269"><ele>2.8571428571428568</ele><time>2026-03-22T10:02:30.242Z</time></trkpt><trkpt lat="43.9810568" lon="10.177022"><ele>3.4285714285714284</ele><time>2026-03-22T10:02:36.251Z</time></trkpt><trkpt lat="43.9810929" lon="10.1771199"><ele>4.0</ele><time>2026-03-22T10:02:43.241Z</time></trkpt><trkpt lat="43.9811385" lon="10.1771973"><ele>4.0</ele><time>2026-03-22T10:02:50.256Z</time></trkpt></trkseg></trk></gpx>